createdAt,value
2023-03-27T00:02:30.043Z,12.28
2023-03-27T00:06:02.595Z,12.18
2023-03-27T00:09:24.203Z,12.13
2023-03-27T00:12:48.110Z,12.04
2023-03-27T00:16:12.244Z,12.14
2023-03-27T00:19:33.995Z,12.18
2023-03-27T00:22:56.493Z,12.23
2023-03-27T00:26:18.507Z,12.17
2023-03-27T00:29:40.480Z,12.25
2023-03-27T00:33:04.734Z,12.28
2023-03-27T00:36:26.486Z,12.24
2023-03-27T00:39:50.427Z,12.18
2023-03-27T00:43:27.386Z,12.21
2023-03-27T00:46:49.580Z,12.08
2023-03-27T00:50:19.201Z,12.01
2023-03-27T00:53:42.612Z,11.86
2023-03-27T00:57:07.998Z,11.84
2023-03-27T01:00:33.512Z,11.72
2023-03-27T01:03:59.652Z,11.69
2023-03-27T01:07:22.568Z,11.70
2023-03-27T01:11:24.635Z,11.75
2023-03-27T01:14:49.314Z,11.67
2023-03-27T01:18:25.559Z,11.73
2023-03-27T01:22:09.261Z,11.58
2023-03-27T01:26:12.684Z,11.65
2023-03-27T01:29:43.456Z,11.66
2023-03-27T01:33:42.978Z,11.48
2023-03-27T01:37:30.714Z,11.48
2023-03-27T01:41:32.400Z,11.49
2023-03-27T01:45:04.795Z,11.62
2023-03-27T01:48:34.874Z,11.72
2023-03-27T01:52:02.786Z,11.72
2023-03-27T01:55:30.294Z,11.72
2023-03-27T01:58:55.527Z,11.63
2023-03-27T02:02:33.117Z,11.46
2023-03-27T02:06:07.670Z,11.38
2023-03-27T02:09:44.845Z,11.54
2023-03-27T02:13:13.184Z,11.51
2023-03-27T02:16:42.748Z,11.86
2023-03-27T02:20:14.823Z,11.89
2023-03-27T02:23:38.990Z,11.79
2023-03-27T02:27:18.033Z,11.56
2023-03-27T02:30:44.958Z,11.62
2023-03-27T02:34:31.640Z,11.51
2023-03-27T02:38:19.286Z,11.35
2023-03-27T02:41:56.030Z,11.32
2023-03-27T02:45:38.684Z,11.25
2023-03-27T02:49:05.660Z,11.52
2023-03-27T02:52:33.744Z,11.48
2023-03-27T02:56:02.085Z,11.40
2023-03-27T02:59:31.241Z,11.32
2023-03-27T03:03:11.985Z,11.22
2023-03-27T03:06:42.181Z,11.17
2023-03-27T03:10:09.664Z,11.07
2023-03-27T03:13:34.081Z,11.17
2023-03-27T03:16:57.894Z,11.14
2023-03-27T03:20:22.007Z,11.03
2023-03-27T03:23:43.573Z,10.98
2023-03-27T03:27:21.120Z,11.03
2023-03-27T03:30:46.888Z,11.06
2023-03-27T03:34:12.160Z,11.01
2023-03-27T03:37:38.602Z,11.07
2023-03-27T03:41:00.939Z,11.14
2023-03-27T03:44:22.608Z,11.21
2023-03-27T03:47:45.532Z,11.17
2023-03-27T03:51:07.156Z,11.12
2023-03-27T03:54:31.498Z,11.18
2023-03-27T03:57:53.049Z,11.14
2023-03-27T04:01:20.860Z,11.08
2023-03-27T04:04:46.588Z,11.14
2023-03-27T04:08:08.627Z,11.08
2023-03-27T04:11:30.281Z,11.10
2023-03-27T04:14:52.088Z,11.08
2023-03-27T04:18:15.073Z,11.00
2023-03-27T04:21:42.444Z,10.94
2023-03-27T04:25:08.156Z,10.90
2023-03-27T04:28:34.659Z,10.93
2023-03-27T04:31:59.626Z,10.94
2023-03-27T04:35:23.973Z,11.08
2023-03-27T04:38:45.690Z,10.91
2023-03-27T04:42:07.754Z,10.90
2023-03-27T04:45:33.837Z,10.90
2023-03-27T04:48:56.471Z,10.79
2023-03-27T04:52:18.697Z,10.76
2023-03-27T04:55:40.545Z,10.76
2023-03-27T04:59:07.179Z,10.83
2023-03-27T05:02:29.050Z,10.80
2023-03-27T05:05:50.679Z,10.74
2023-03-27T05:09:14.553Z,10.59
2023-03-27T05:12:45.010Z,10.63
2023-03-27T05:16:07.222Z,10.71
2023-03-27T05:19:31.197Z,10.70
2023-03-27T05:22:56.558Z,10.74
2023-03-27T05:26:19.124Z,10.70
2023-03-27T05:29:46.987Z,10.70
2023-03-27T05:33:14.039Z,10.87
2023-03-27T05:36:35.657Z,10.87
2023-03-27T05:39:57.245Z,10.84
2023-03-27T05:43:21.711Z,10.70
2023-03-27T05:46:45.811Z,10.67
2023-03-27T05:50:08.098Z,10.63
2023-03-27T05:53:31.971Z,10.67
2023-03-27T05:56:53.635Z,10.71
2023-03-27T06:00:16.504Z,10.80
2023-03-27T06:03:41.212Z,10.71
2023-03-27T06:07:03.003Z,10.77
2023-03-27T06:10:29.229Z,10.71
2023-03-27T06:13:55.829Z,10.70
2023-03-27T06:17:19.977Z,11.03
2023-03-27T06:20:44.170Z,10.93
2023-03-27T06:24:06.121Z,10.91
2023-03-27T06:27:31.763Z,10.87
2023-03-27T06:30:53.466Z,10.84
2023-03-27T06:34:18.613Z,10.84
2023-03-27T06:37:42.183Z,10.81
2023-03-27T06:41:04.686Z,10.73
2023-03-27T06:44:26.538Z,10.83
2023-03-27T06:48:18.013Z,10.76
2023-03-27T06:51:41.065Z,10.74
2023-03-27T06:55:04.121Z,10.70
2023-03-27T06:58:28.058Z,10.76
2023-03-27T07:01:52.444Z,10.93
2023-03-27T07:05:15.720Z,10.96
2023-03-27T07:08:37.375Z,10.87
2023-03-27T07:11:58.993Z,10.94
2023-03-27T07:15:25.157Z,11.15
2023-03-27T07:18:51.675Z,10.98
2023-03-27T07:22:13.437Z,10.84
2023-03-27T07:25:38.290Z,10.91
2023-03-27T07:29:03.151Z,10.87
2023-03-27T07:32:36.046Z,10.93
2023-03-27T07:35:58.649Z,10.81
2023-03-27T07:39:20.579Z,10.83
2023-03-27T07:42:46.094Z,10.96
2023-03-27T07:46:10.729Z,10.96
2023-03-27T07:49:39.861Z,10.79
2023-03-27T07:53:02.174Z,10.83
2023-03-27T07:56:28.969Z,10.87
2023-03-27T07:59:54.468Z,10.77
2023-03-27T08:03:16.585Z,10.69
2023-03-27T08:06:38.706Z,10.81
2023-03-27T08:10:03.070Z,10.93
2023-03-27T08:13:27.153Z,10.98
2023-03-27T08:16:51.657Z,11.08
2023-03-27T08:20:18.825Z,11.11
2023-03-27T08:23:41.148Z,11.07
2023-03-27T08:27:03.545Z,11.14
2023-03-27T08:30:27.916Z,11.10
2023-03-27T08:33:49.645Z,10.97
2023-03-27T08:37:11.317Z,10.94
2023-03-27T08:40:34.146Z,10.84
2023-03-27T08:43:58.022Z,10.64
2023-03-27T08:47:33.500Z,10.60
2023-03-27T08:50:59.425Z,10.43
2023-03-27T08:54:25.682Z,10.21
2023-03-27T08:57:50.293Z,9.97
2023-03-27T09:01:19.948Z,10.29
2023-03-27T09:05:00.177Z,10.46
2023-03-27T09:08:57.355Z,10.22
2023-03-27T09:12:56.693Z,10.53
2023-03-27T09:16:38.710Z,10.45
2023-03-27T09:20:07.449Z,10.39
2023-03-27T09:23:36.837Z,10.61
2023-03-27T09:27:19.303Z,10.66
2023-03-27T09:30:41.101Z,10.52
2023-03-27T09:34:08.998Z,10.45
2023-03-27T09:37:31.036Z,10.49
2023-03-27T09:41:06.827Z,10.67
2023-03-27T09:44:33.366Z,10.56
2023-03-27T09:48:02.172Z,10.63
2023-03-27T09:51:43.164Z,10.53
2023-03-27T09:55:31.160Z,10.42
2023-03-27T09:58:53.951Z,10.31
2023-03-27T10:02:24.692Z,10.35
2023-03-27T10:06:04.760Z,10.50
2023-03-27T10:09:30.870Z,10.45
2023-03-27T10:12:58.657Z,10.43
2023-03-27T10:16:22.731Z,10.45
2023-03-27T10:19:45.043Z,10.46
2023-03-27T10:23:09.432Z,10.59
2023-03-27T10:26:33.007Z,10.69
2023-03-27T10:29:54.639Z,10.76
2023-03-27T10:33:39.814Z,10.77
2023-03-27T10:37:06.102Z,10.79
2023-03-27T10:40:36.740Z,10.81
2023-03-27T10:44:04.037Z,10.64
2023-03-27T10:47:30.170Z,10.74
2023-03-27T10:50:57.668Z,10.66
2023-03-27T10:54:51.319Z,10.69
2023-03-27T10:58:35.326Z,10.71
2023-03-27T11:02:03.920Z,10.59
2023-03-27T11:05:36.722Z,10.59
2023-03-27T11:09:05.817Z,10.50
2023-03-27T11:12:30.523Z,10.45
2023-03-27T11:16:16.459Z,10.69
2023-03-27T11:19:48.367Z,10.55
2023-03-27T11:23:28.695Z,10.56
2023-03-27T11:27:28.008Z,10.50
2023-03-27T11:31:14.052Z,10.50
2023-03-27T11:34:48.177Z,10.50
2023-03-27T11:38:35.423Z,10.60
2023-03-27T11:41:59.152Z,10.12
2023-03-27T11:45:29.486Z,10.08
2023-03-27T11:49:00.065Z,10.14
2023-03-27T11:52:52.455Z,10.22
2023-03-27T11:56:20.335Z,11.00
2023-03-27T11:59:57.264Z,12.17
2023-03-27T12:03:56.511Z,12.04
2023-03-27T12:07:36.435Z,11.62
2023-03-27T12:11:08.650Z,11.29
2023-03-27T12:14:50.437Z,10.96
2023-03-27T12:19:03.803Z,10.71
2023-03-27T12:22:49.180Z,10.71
2023-03-27T12:26:42.376Z,10.64
2023-03-27T12:30:26.845Z,10.55
2023-03-27T12:34:12.411Z,10.52
2023-03-27T12:38:00.793Z,10.48
2023-03-27T12:41:28.828Z,10.57
2023-03-27T12:45:18.335Z,10.50
2023-03-27T12:49:20.945Z,10.55
2023-03-27T12:52:46.951Z,10.69
2023-03-27T12:56:17.343Z,10.83
2023-03-27T12:59:49.889Z,10.80
2023-03-27T13:03:14.204Z,10.53
2023-03-27T13:06:52.477Z,10.67
2023-03-27T13:10:32.860Z,10.84
2023-03-27T13:14:03.932Z,10.52
2023-03-27T13:18:03.203Z,10.53
2023-03-27T13:21:46.276Z,10.33
2023-03-27T13:25:29.808Z,10.41
2023-03-27T13:28:54.443Z,10.49
2023-03-27T13:32:38.804Z,10.08
2023-03-27T13:36:22.802Z,9.71
2023-03-27T13:40:01.598Z,9.70
2023-03-27T13:43:35.396Z,9.11
2023-03-27T13:47:12.417Z,9.18
2023-03-27T13:50:53.964Z,8.65
2023-03-27T13:54:30.759Z,8.70
2023-03-27T13:58:33.936Z,8.78
2023-03-27T14:02:04.421Z,9.09
2023-03-27T14:05:52.137Z,8.41
2023-03-27T14:09:19.062Z,8.78
2023-03-27T14:12:54.818Z,8.93
2023-03-27T14:16:25.239Z,8.84
2023-03-27T14:20:08.677Z,8.82
2023-03-27T14:23:38.722Z,8.44
2023-03-27T14:27:03.435Z,8.64
2023-03-27T14:30:27.513Z,8.84
2023-03-27T14:33:57.962Z,8.47
2023-03-27T14:37:22.664Z,8.20
2023-03-27T14:40:54.855Z,8.10
2023-03-27T14:44:18.852Z,7.81
2023-03-27T14:47:42.995Z,8.06
2023-03-27T14:51:19.454Z,7.44
2023-03-27T14:54:54.413Z,7.74
2023-03-27T14:58:19.409Z,7.72
2023-03-27T15:01:43.566Z,8.02
2023-03-27T15:05:12.050Z,8.02
2023-03-27T15:08:37.052Z,8.09
2023-03-27T15:12:01.262Z,7.89
2023-03-27T15:15:28.132Z,7.86
2023-03-27T15:19:15.324Z,7.98
2023-03-27T15:22:42.090Z,8.60
2023-03-27T15:26:20.445Z,8.07
2023-03-27T15:29:53.528Z,7.54
2023-03-27T15:33:22.056Z,7.70
2023-03-27T15:36:56.989Z,7.46
2023-03-27T15:40:24.740Z,7.15
2023-03-27T15:43:52.071Z,7.46
2023-03-27T15:47:26.057Z,7.67
2023-03-27T15:50:58.562Z,7.51
2023-03-27T15:54:32.603Z,7.51
2023-03-27T15:58:00.305Z,7.15
2023-03-27T16:01:27.455Z,7.24
2023-03-27T16:04:56.823Z,7.31
2023-03-27T16:08:36.983Z,7.31
2023-03-27T16:11:59.720Z,7.43
2023-03-27T16:15:34.872Z,6.40
2023-03-27T16:19:11.036Z,6.82
2023-03-27T16:22:36.732Z,7.10
2023-03-27T16:26:00.293Z,6.74
2023-03-27T16:29:23.945Z,7.00
2023-03-27T16:32:46.238Z,6.96
2023-03-27T16:36:11.418Z,7.09
2023-03-27T16:39:33.599Z,6.78
2023-03-27T16:42:55.552Z,6.95
2023-03-27T16:46:17.609Z,7.12
2023-03-27T16:49:39.801Z,7.06
2023-03-27T16:53:01.539Z,7.09
2023-03-27T16:56:23.362Z,6.65
2023-03-27T16:59:44.940Z,6.38
2023-03-27T17:03:06.824Z,6.78
2023-03-27T17:06:28.459Z,6.89
2023-03-27T17:09:51.686Z,6.89
2023-03-27T17:13:18.429Z,6.93
2023-03-27T17:16:42.686Z,6.86
2023-03-27T17:20:07.954Z,6.88
2023-03-27T17:23:31.891Z,7.03
2023-03-27T17:26:53.562Z,6.99
2023-03-27T17:30:21.455Z,6.89
2023-03-27T17:33:51.124Z,6.93
2023-03-27T17:37:12.769Z,6.68
2023-03-27T17:40:39.573Z,6.58
2023-03-27T17:44:01.307Z,6.89
2023-03-27T17:47:22.945Z,7.12
2023-03-27T17:50:54.810Z,7.19
2023-03-27T17:54:27.602Z,6.95
2023-03-27T17:58:01.866Z,7.05
2023-03-27T18:01:29.697Z,7.12
2023-03-27T18:04:54.313Z,7.03
2023-03-27T18:08:17.477Z,6.84
2023-03-27T18:11:39.042Z,6.63
2023-03-27T18:15:00.781Z,6.29
2023-03-27T18:18:22.778Z,6.20
2023-03-27T18:21:44.407Z,6.26
2023-03-27T18:25:10.168Z,6.51
2023-03-27T18:28:34.815Z,6.59
2023-03-27T18:31:59.322Z,6.38
2023-03-27T18:35:21.156Z,6.26
2023-03-27T18:38:42.928Z,6.48
2023-03-27T18:42:08.768Z,6.52
2023-03-27T18:45:30.417Z,6.37
2023-03-27T18:48:52.107Z,6.48
2023-03-27T18:52:16.146Z,6.45
2023-03-27T18:55:40.324Z,6.51
2023-03-27T18:59:01.988Z,6.38
2023-03-27T19:02:23.696Z,6.26
2023-03-27T19:05:46.119Z,6.26
2023-03-27T19:09:07.858Z,6.29
2023-03-27T19:12:32.128Z,6.47
2023-03-27T19:15:53.773Z,6.50
2023-03-27T19:19:15.354Z,6.33
2023-03-27T19:22:36.987Z,6.27
2023-03-27T19:26:09.712Z,6.29
2023-03-27T19:29:31.480Z,6.26
2023-03-27T19:32:55.676Z,6.20
2023-03-27T19:36:20.008Z,6.24
2023-03-27T19:39:41.675Z,6.58
2023-03-27T19:43:03.571Z,6.78
2023-03-27T19:46:29.166Z,7.10
2023-03-27T19:49:50.873Z,6.93
2023-03-27T19:53:12.942Z,6.33
2023-03-27T19:56:35.167Z,6.42
2023-03-27T19:59:56.895Z,6.45
2023-03-27T20:03:24.358Z,6.14
2023-03-27T20:06:47.053Z,6.29
2023-03-27T20:10:09.090Z,6.20
2023-03-27T20:13:30.770Z,6.17
2023-03-27T20:16:54.662Z,5.93
2023-03-27T20:20:16.726Z,6.00
2023-03-27T20:23:38.586Z,6.05
2023-03-27T20:27:03.601Z,6.03
2023-03-27T20:30:25.535Z,6.09
2023-03-27T20:33:47.524Z,5.78
2023-03-27T20:37:12.363Z,5.65
2023-03-27T20:40:53.382Z,5.76
2023-03-27T20:44:17.573Z,5.88
2023-03-27T20:47:43.123Z,5.55
2023-03-27T20:51:06.617Z,5.82
2023-03-27T20:54:29.205Z,5.44
2023-03-27T20:57:50.849Z,5.48
2023-03-27T21:01:14.946Z,5.62
2023-03-27T21:04:38.947Z,5.31
2023-03-27T21:08:03.507Z,5.44
2023-03-27T21:11:27.603Z,5.43
2023-03-27T21:14:51.625Z,5.48
2023-03-27T21:18:13.267Z,5.50
2023-03-27T21:21:37.647Z,5.88
2023-03-27T21:24:59.381Z,6.30
2023-03-27T21:28:21.020Z,6.45
2023-03-27T21:31:43.086Z,6.31
2023-03-27T21:35:08.660Z,5.65
2023-03-27T21:38:33.130Z,5.51
2023-03-27T21:41:54.666Z,5.38
2023-03-27T21:45:21.298Z,5.35
2023-03-27T21:48:50.202Z,5.43
2023-03-27T21:52:11.835Z,5.54
2023-03-27T21:55:37.893Z,5.66
2023-03-27T21:58:59.538Z,5.76
2023-03-27T22:02:24.055Z,5.65
2023-03-27T22:05:54.551Z,5.75
2023-03-27T22:09:32.187Z,5.30
2023-03-27T22:12:53.926Z,5.61
2023-03-27T22:16:17.372Z,5.71
2023-03-27T22:19:39.352Z,5.75
2023-03-27T22:23:03.142Z,5.81
2023-03-27T22:26:35.788Z,5.82
2023-03-27T22:29:59.676Z,5.81
2023-03-27T22:33:26.215Z,5.83
2023-03-27T22:36:47.829Z,5.90
2023-03-27T22:40:12.368Z,5.83
2023-03-27T22:43:36.134Z,5.81
2023-03-27T22:46:59.992Z,5.76
2023-03-27T22:50:23.907Z,5.73
2023-03-27T22:53:48.225Z,5.61
2023-03-27T22:57:12.286Z,5.56
2023-03-27T23:00:33.934Z,5.59
2023-03-27T23:03:55.872Z,5.44
2023-03-27T23:07:17.657Z,5.50
2023-03-27T23:10:41.529Z,5.68
2023-03-27T23:14:03.156Z,5.68
2023-03-27T23:17:24.787Z,5.65
2023-03-27T23:20:46.391Z,5.40
2023-03-27T23:24:08.094Z,5.43
2023-03-27T23:27:32.380Z,5.24
2023-03-27T23:30:59.466Z,5.35
2023-03-27T23:34:23.299Z,5.17
2023-03-27T23:37:47.645Z,5.27
2023-03-27T23:41:11.970Z,4.95
2023-03-27T23:44:35.964Z,5.09
2023-03-27T23:47:57.636Z,5.24
2023-03-27T23:51:19.269Z,5.35
2023-03-27T23:54:41.224Z,5.27
2023-03-27T23:58:07.789Z,5.48
